Latest Conditions
At L.F.Wade Int. Airport
Recorded at 1:55 pm
Few Clouds
Temp.: 
22°C/71°F
Humidity: 
74%
Wind: 
WNW 10KT
or 12mph
UV Index: 
N/A
Island Observations
 
Observations
Saturday, February 24, 2018

Observations are in local time and taken at least once an hour, or upon the start and end of specified events such as showers and thunderstorms.

Time Sky / Weather Wind Speed/Gusts Temp. R.H. Pressure
     knots (mph)  °C (°F)  %  mb / "Hg
 13:55 Few Clouds  WNW 10/0 (12/0) 22(71) 74 1025 / 30.28
 13:39 Partly Cloudy  NW 10/0 (12/0) 22(71) 75 1025 / 30.28
 13:18 Mostly Cloudy  NW 10/0 (12/0) 21(71) 77 1026 / 30.29
 12:55 Few Clouds  NW 8/0 (9/0) 22(72) 75 1026 / 30.30
 11:55 Few Clouds  NW 9/0 (10/0) 22(71) 77 1026 / 30.31
 10:55 Partly Cloudy  NNW 8/0 (9/0) 22(71) 78 1027 / 30.33
 09:55 Mostly Cloudy  NNW 5/0 (6/0) 21(70) 80 1027 / 30.33
 08:55 Few Clouds  NW 4/0 (5/0) 21(69) 83 1027 / 30.33
 07:55 Few Clouds  WNW 2/0 (2/0) 19(67) 94 1027 / 30.32
 06:55 Few Clouds  WNW 2/0 (2/0) 19(65) 94 1026 / 30.31
 05:55 Partly Cloudy  VRB 2/0 (2/0) 19(66) 93 1026 / 30.30
 04:55 Mostly Cloudy  NNW 3/0 (3/0) 19(65) 94 1026 / 30.31
 03:55 Mostly Cloudy  Calm 19(66) 92 1026 / 30.31
 02:55 Mostly Cloudy  Calm 19(67) 90 1027 / 30.32
 01:55 Mostly Cloudy  VRB 2/0 (2/0) 20(67) 89 1027 / 30.34
 00:55 Mostly Cloudy Showers NE 5/0 (6/0) 20(67) 88 1028 / 30.35
 00:39 Mostly Cloudy Showers NNE 6/0 (7/0) 20(67) 87 1028 / 30.36
 23:55 Overcast Showers N 7/0 (8/0) 20(68) 88 1028 / 30.36
 22:55 Mostly Cloudy  NNW 7/0 (8/0) 20(68) 87 1029 / 30.38
 21:55 Mostly Cloudy  NW 6/0 (7/0) 20(68) 87 1029 / 30.38
 20:55 Partly Cloudy  NW 5/0 (6/0) 20(68) 85 1029 / 30.38
 20:17 Mostly Cloudy  N 5/0 (6/0) 20(68) 82 1029 / 30.38
 19:55 Mostly Cloudy Showers NNW 6/0 (7/0) 20(68) 81 1029 / 30.39
 19:28 Mostly Cloudy Showers NNW 7/0 (8/0) 20(69) 83 1029 / 30.39
 18:55 Mostly Cloudy Showers NNW 8/0 (9/0) 20(68) 81 1029 / 30.38
 17:55 Mostly Cloudy Showers N 10/0 (12/0) 20(69) 82 1029 / 30.39
 16:55 Mostly Cloudy Showers NNW 7/0 (8/0) 20(69) 84 1029 / 30.38
 16:08 Mostly Cloudy Showers NNW 7/0 (8/0) 20(67) 91 1029 / 30.39
 15:55 Overcast Showers N 7/0 (8/0) 20(67) 90 1029 / 30.39
 15:01 Mostly Cloudy Showers N 10/0 (12/0) 21(69) 81 1029 / 30.40
 14:55 Mostly Cloudy Showers NNW 9/0 (10/0) 21(69) 80 1029 / 30.40
 14:42 Mostly Cloudy Showers NNW 8/0 (9/0) 20(69) 84 1029 / 30.40
 14:21 Mostly Cloudy Showers NNW 11/0 (13/0) 21(70) 76 1030 / 30.41
 13:55 Mostly Cloudy Showers NW 8/0 (9/0) 21(71) 72 1030 / 30.41
 12:55 Mostly Cloudy  NW 8/0 (9/0) 22(71) 67 1030 / 30.43
 11:55 Mostly Cloudy  WNW 7/0 (8/0) 22(72) 66 1031 / 30.45
 10:55 Mostly Cloudy  NW 9/0 (10/0) 21(70) 65 1032 / 30.48
 09:55 Mostly Cloudy  NW 8/0 (9/0) 21(70) 66 1032 / 30.48
 08:55 Mostly Cloudy  NW 8/0 (9/0) 20(69) 69 1032 / 30.48
 07:55 Mostly Cloudy  NNW 10/0 (12/0) 20(68) 66 1032 / 30.48
 06:55 Mostly Cloudy  NNW 8/0 (9/0) 20(67) 67 1031 / 30.46
 05:55 Mostly Cloudy  NW 6/0 (7/0) 19(67) 67 1031 / 30.46
 04:55 Overcast  NNW 7/0 (8/0) 19(67) 68 1031 / 30.46
 03:55 Mostly Cloudy  NW 7/0 (8/0) 19(67) 66 1032 / 30.47
 02:55 Mostly Cloudy  NW 7/0 (8/0) 19(67) 66 1032 / 30.48
 01:55 Mostly Cloudy  NW 6/0 (7/0) 20(67) 68 1033 / 30.49
 00:55 Mostly Cloudy  WNW 5/0 (6/0) 20(67) 68 1033 / 30.51
 23:55 Mostly Cloudy  WNW 5/0 (6/0) 19(67) 67 1034 / 30.52
 22:55 Mostly Cloudy  NNW 3/0 (3/0) 20(67) 66 1034 / 30.52
 21:55 Mostly Cloudy  NW 4/0 (5/0) 19(67) 65 1034 / 30.52
 20:55 Mostly Cloudy  NW 3/0 (3/0) 19(67) 65 1034 / 30.52
 19:55 Mostly Cloudy  N 3/0 (3/0) 19(66) 67 1034 / 30.52
 18:55 Mostly Cloudy  VRB 2/0 (2/0) 19(67) 68 1034 / 30.52
 17:55 Partly Cloudy  NW 3/0 (3/0) 20(67) 65 1033 / 30.51
 16:55 Few Clouds  W 4/0 (5/0) 20(68) 64 1033 / 30.50
 15:55 Partly Cloudy  N 3/0 (3/0) 21(69) 61 1033 / 30.50
 14:55 Mostly Cloudy  NNW 5/0 (6/0) 20(69) 62 1033 / 30.51
 13:55 Mostly Cloudy  N 4/0 (5/0) 20(69) 62 1034 / 30.53
 12:55 Mostly Cloudy  N 4/0 (5/0) 21(69) 61 1035 / 30.57
 11:55 Mostly Cloudy  ENE 5/0 (6/0) 20(68) 61 1036 / 30.59
 10:55 Mostly Cloudy  N 3/0 (3/0) 20(69) 62 1036 / 30.60
 09:55 Mostly Cloudy  N 6/0 (7/0) 20(68) 64 1036 / 30.60
 08:55 Mostly Cloudy  VRB 2/0 (2/0) 20(67) 68 1036 / 30.59
 07:55 Mostly Cloudy  VRB 1/0 (1/0) 18(65) 73 1036 / 30.58
 06:55 Mostly Cloudy  VRB 2/0 (2/0) 18(64) 74 1035 / 30.56
 05:55 Mostly Cloudy  Calm 18(64) 76 1035 / 30.56
 04:55 Mostly Cloudy  VRB 1/0 (1/0) 18(64) 74 1035 / 30.55
 03:55 Mostly Cloudy  VRB 1/0 (1/0) 17(63) 83 1035 / 30.55
 02:55 Mostly Cloudy  Calm 17(62) 89 1035 / 30.56
 02:40 Mostly Cloudy  Calm 16(62) 90 1035 / 30.57
 01:55 Few Clouds  Calm 16(62) 89 1036 / 30.58
 00:55 Few Clouds  VRB 2/0 (2/0) 18(64) 76 1036 / 30.59
 23:55 Partly Cloudy  SSE 5/0 (6/0) 19(66) 71 1036 / 30.60
 22:55 Few Clouds  SE 6/0 (7/0) 19(66) 68 1036 / 30.60
 21:55 Few Clouds  ESE 5/0 (6/0) 18(65) 72 1036 / 30.60
 20:55 Partly Cloudy  E 4/0 (5/0) 19(66) 70 1036 / 30.60
 19:55 Few Clouds  E 5/0 (6/0) 18(65) 71 1036 / 30.60
 18:55 Few Clouds  E 5/0 (6/0) 18(65) 70 1036 / 30.59
 17:55 Partly Cloudy  ESE 7/0 (8/0) 20(67) 67 1036 / 30.58
 16:55 Partly Cloudy  SE 6/0 (7/0) 21(69) 60 1036 / 30.58
 15:55 Partly Cloudy  ESE 7/0 (8/0) 21(69) 60 1035 / 30.57
 14:55 Partly Cloudy  SE 8/0 (9/0) 21(70) 61 1036 / 30.58
 13:55 Partly Cloudy  ESE 8/0 (9/0) 21(70) 61 1036 / 30.59
 12:55 Partly Cloudy  ESE 8/0 (9/0) 22(71) 59 1036 / 30.60
 11:55 Mostly Cloudy  ESE 8/0 (9/0) 21(71) 60 1037 / 30.62
 10:55 Partly Cloudy  ESE 8/0 (9/0) 21(70) 60 1037 / 30.63
 09:55 Partly Cloudy  ESE 8/0 (9/0) 21(69) 64 1037 / 30.63
 08:55 Partly Cloudy Showers E 6/0 (7/0) 20(67) 71 1037 / 30.62
 07:55 Partly Cloudy Showers E 5/0 (6/0) 18(65) 79 1037 / 30.61
 06:55 Partly Cloudy  E 6/0 (7/0) 16(62) 79 1036 / 30.60
 05:55 Few Clouds  E 6/0 (7/0) 17(62) 78 1036 / 30.60
 04:55 Few Clouds  ESE 6/0 (7/0) 17(62) 78 1036 / 30.58
 04:06 Partly Cloudy  E 6/0 (7/0) 18(64) 79 1036 / 30.58
 04:00 Partly Cloudy Showers ESE 6/0 (7/0) 17(63) 78 1036 / 30.59
 03:55 Partly Cloudy  E 6/0 (7/0) 17(63) 76 1036 / 30.59
 02:55 Few Clouds  E 6/0 (7/0) 17(62) 78 1036 / 30.59
 01:55 Few Clouds  E 6/0 (7/0) 17(63) 78 1037 / 30.61
 00:55 Few Clouds  ESE 7/0 (8/0) 18(64) 74 1037 / 30.61
 23:55 Few Clouds  E 8/0 (9/0) 18(64) 73 1037 / 30.61
 22:55 Few Clouds  E 7/0 (8/0) 17(63) 77 1037 / 30.61
Island AWOS